sensor_id;sensor_type;location;lat;lon;timestamp;pressure;altitude;pressure_sealevel;temperature;humidity
76311;BME280;65120;59.304;18.294;2023-04-24T00:02:19;100228.22;;;9.21;65.88
76311;BME280;65120;59.304;18.294;2023-04-24T00:04:46;100243.84;;;9.21;65.51
76311;BME280;65120;59.304;18.294;2023-04-24T00:07:14;100242.22;;;9.17;65.71
76311;BME280;65120;59.304;18.294;2023-04-24T00:09:42;100253.50;;;9.18;65.50
76311;BME280;65120;59.304;18.294;2023-04-24T00:12:10;100255.25;;;9.17;65.58
76311;BME280;65120;59.304;18.294;2023-04-24T00:14:37;100259.66;;;9.14;65.84
76311;BME280;65120;59.304;18.294;2023-04-24T00:17:04;100251.88;;;9.12;65.99
76311;BME280;65120;59.304;18.294;2023-04-24T00:19:31;100254.53;;;9.11;65.75
76311;BME280;65120;59.304;18.294;2023-04-24T00:21:58;100255.44;;;9.08;65.72
76311;BME280;65120;59.304;18.294;2023-04-24T00:24:25;100255.44;;;9.07;65.85
76311;BME280;65120;59.304;18.294;2023-04-24T00:26:52;100271.13;;;9.05;66.05
76311;BME280;65120;59.304;18.294;2023-04-24T00:29:20;100271.16;;;9.04;65.80
76311;BME280;65120;59.304;18.294;2023-04-24T00:31:47;100279.88;;;9.01;66.04
76311;BME280;65120;59.304;18.294;2023-04-24T00:34:14;100282.50;;;9.01;66.00
76311;BME280;65120;59.304;18.294;2023-04-24T00:36:41;100276.44;;;8.99;65.90
76311;BME280;65120;59.304;18.294;2023-04-24T00:39:08;100274.75;;;8.98;65.79
76311;BME280;65120;59.304;18.294;2023-04-24T00:41:35;100279.09;;;8.97;65.72
76311;BME280;65120;59.304;18.294;2023-04-24T00:44:02;100289.50;;;8.97;65.68
76311;BME280;65120;59.304;18.294;2023-04-24T00:46:31;100282.56;;;8.98;65.63
76311;BME280;65120;59.304;18.294;2023-04-24T00:48:59;100267.94;;;8.91;65.66
76311;BME280;65120;59.304;18.294;2023-04-24T00:51:26;100286.94;;;8.96;65.60
76311;BME280;65120;59.304;18.294;2023-04-24T00:53:53;100286.06;;;8.95;65.63
76311;BME280;65120;59.304;18.294;2023-04-24T00:56:20;100283.50;;;8.94;65.91
76311;BME280;65120;59.304;18.294;2023-04-24T00:58:47;100283.50;;;8.94;65.86
76311;BME280;65120;59.304;18.294;2023-04-24T01:01:14;100286.97;;;8.94;65.69
76311;BME280;65120;59.304;18.294;2023-04-24T01:03:42;100286.13;;;8.92;65.64
76311;BME280;65120;59.304;18.294;2023-04-24T01:06:09;100289.63;;;8.91;65.67
76311;BME280;65120;59.304;18.294;2023-04-24T01:08:37;100296.56;;;8.92;65.81
76311;BME280;65120;59.304;18.294;2023-04-24T01:11:04;100287.13;;;8.87;65.56
76311;BME280;65120;59.304;18.294;2023-04-24T01:13:32;100289.66;;;8.90;65.88
76311;BME280;65120;59.304;18.294;2023-04-24T01:15:59;100297.47;;;8.90;65.73
76311;BME280;65120;59.304;18.294;2023-04-24T01:18:26;100297.47;;;8.90;65.58
76311;BME280;65120;59.304;18.294;2023-04-24T01:20:57;100294.00;;;8.89;65.60
76311;BME280;65120;59.304;18.294;2023-04-24T01:23:25;100294.03;;;8.88;65.54
76311;BME280;65120;59.304;18.294;2023-04-24T01:25:52;100297.53;;;8.87;65.35
76311;BME280;65120;59.304;18.294;2023-04-24T01:28:19;100298.44;;;8.84;65.68
76311;BME280;65120;59.304;18.294;2023-04-24T01:30:47;100300.22;;;8.82;65.92
76311;BME280;65120;59.304;18.294;2023-04-24T01:33:14;100296.91;;;8.74;65.76
76311;BME280;65120;59.304;18.294;2023-04-24T01:35:41;100316.78;;;8.80;65.77
76311;BME280;65120;59.304;18.294;2023-04-24T01:38:09;100305.53;;;8.76;66.03
76311;BME280;65120;59.304;18.294;2023-04-24T01:40:37;100315.03;;;8.78;65.82
76311;BME280;65120;59.304;18.294;2023-04-24T01:43:04;100319.41;;;8.76;65.52
76311;BME280;65120;59.304;18.294;2023-04-24T01:45:31;100308.97;;;8.78;65.70
76311;BME280;65120;59.304;18.294;2023-04-24T01:47:58;100316.81;;;8.76;65.56
76311;BME280;65120;59.304;18.294;2023-04-24T01:50:25;100321.16;;;8.77;65.70
76311;BME280;65120;59.304;18.294;2023-04-24T01:52:52;100327.22;;;8.76;65.90
76311;BME280;65120;59.304;18.294;2023-04-24T01:55:19;100329.88;;;8.75;65.62
76311;BME280;65120;59.304;18.294;2023-04-24T01:57:47;100338.59;;;8.72;65.70
76311;BME280;65120;59.304;18.294;2023-04-24T02:00:15;100340.34;;;8.72;65.92
76311;BME280;65120;59.304;18.294;2023-04-24T02:02:42;100339.50;;;8.71;65.60
76311;BME280;65120;59.304;18.294;2023-04-24T02:05:09;100327.34;;;8.70;65.88
76311;BME280;65120;59.304;18.294;2023-04-24T02:07:36;100330.84;;;8.69;65.44
76311;BME280;65120;59.304;18.294;2023-04-24T02:10:04;100328.25;;;8.68;65.59
76311;BME280;65120;59.304;18.294;2023-04-24T02:12:31;100329.19;;;8.65;65.36
76311;BME280;65120;59.304;18.294;2023-04-24T02:15:00;100324.84;;;8.64;65.32
76311;BME280;65120;59.304;18.294;2023-04-24T02:17:27;100329.22;;;8.62;65.47
76311;BME280;65120;59.304;18.294;2023-04-24T02:19:54;100337.94;;;8.61;65.57
76311;BME280;65120;59.304;18.294;2023-04-24T02:22:20;100333.72;;;8.54;65.38
76311;BME280;65120;59.304;18.294;2023-04-24T02:24:47;100342.34;;;8.56;65.45
76311;BME280;65120;59.304;18.294;2023-04-24T02:27:14;100341.53;;;8.54;65.26
76311;BME280;65120;59.304;18.294;2023-04-24T02:29:41;100333.78;;;8.51;65.16
76311;BME280;65120;59.304;18.294;2023-04-24T02:32:10;100325.25;;;8.43;65.38
76311;BME280;65120;59.304;18.294;2023-04-24T02:34:37;100342.50;;;8.47;64.98
76311;BME280;65120;59.304;18.294;2023-04-24T02:37:05;100341.66;;;8.45;65.43
76311;BME280;65120;59.304;18.294;2023-04-24T02:39:31;100344.38;;;8.40;65.29
76311;BME280;65120;59.304;18.294;2023-04-24T02:41:58;100340.88;;;8.38;65.24
76311;BME280;65120;59.304;18.294;2023-04-24T02:44:25;100340.94;;;8.33;65.35
76311;BME280;65120;59.304;18.294;2023-04-24T02:46:52;100342.75;;;8.31;65.45
76311;BME280;65120;59.304;18.294;2023-04-24T02:49:20;100353.19;;;8.28;65.50
76311;BME280;65120;59.304;18.294;2023-04-24T02:51:47;100352.34;;;8.26;65.34
76311;BME280;65120;59.304;18.294;2023-04-24T02:54:14;100354.16;;;8.23;65.38
76311;BME280;65120;59.304;18.294;2023-04-24T02:56:41;100366.28;;;8.22;65.35
76311;BME280;65120;59.304;18.294;2023-04-24T02:59:08;100368.88;;;8.22;65.28
76311;BME280;65120;59.304;18.294;2023-04-24T03:01:35;100361.13;;;8.19;65.29
76311;BME280;65120;59.304;18.294;2023-04-24T03:04:02;100362.03;;;8.18;65.25
76311;BME280;65120;59.304;18.294;2023-04-24T03:06:30;100358.56;;;8.18;65.27
76311;BME280;65120;59.304;18.294;2023-04-24T03:08:58;100369.88;;;8.15;65.00
76311;BME280;65120;59.304;18.294;2023-04-24T03:11:25;100370.78;;;8.11;65.31
76311;BME280;65120;59.304;18.294;2023-04-24T03:13:52;100376.03;;;8.08;64.84
76311;BME280;65120;59.304;18.294;2023-04-24T03:16:19;100385.63;;;8.04;64.94
76311;BME280;65120;59.304;18.294;2023-04-24T03:18:45;100380.47;;;8.03;65.29
76311;BME280;65120;59.304;18.294;2023-04-24T03:21:12;100376.16;;;8.00;64.95
76311;BME280;65120;59.304;18.294;2023-04-24T03:23:41;100378.78;;;7.99;65.01
76311;BME280;65120;59.304;18.294;2023-04-24T03:26:07;100375.31;;;7.97;64.94
76311;BME280;65120;59.304;18.294;2023-04-24T03:28:34;100390.97;;;7.94;65.28
76311;BME280;65120;59.304;18.294;2023-04-24T03:31:02;100391.88;;;7.93;64.88
76311;BME280;65120;59.304;18.294;2023-04-24T03:33:29;100384.16;;;7.85;64.74
76311;BME280;65120;59.304;18.294;2023-04-24T03:35:56;100383.25;;;7.87;64.92
76311;BME280;65120;59.304;18.294;2023-04-24T03:38:23;100398.00;;;7.87;64.93
76311;BME280;65120;59.304;18.294;2023-04-24T03:40:51;100392.84;;;7.85;65.00
76311;BME280;65120;59.304;18.294;2023-04-24T03:43:18;100392.00;;;7.83;64.93
76311;BME280;65120;59.304;18.294;2023-04-24T03:45:45;100392.00;;;7.82;65.16
76311;BME280;65120;59.304;18.294;2023-04-24T03:48:12;100392.91;;;7.81;65.12
76311;BME280;65120;59.304;18.294;2023-04-24T03:50:38;100392.91;;;7.79;65.03
76311;BME280;65120;59.304;18.294;2023-04-24T03:53:06;100400.69;;;7.79;65.04
76311;BME280;65120;59.304;18.294;2023-04-24T03:55:33;100399.88;;;7.77;65.18
76311;BME280;65120;59.304;18.294;2023-04-24T03:58:01;100399.00;;;7.77;65.00
76311;BME280;65120;59.304;18.294;2023-04-24T04:00:28;100399.94;;;7.74;65.14
76311;BME280;65120;59.304;18.294;2023-04-24T04:02:58;100395.59;;;7.73;65.27
76311;BME280;65120;59.304;18.294;2023-04-24T04:05:25;100406.88;;;7.71;65.26
76311;BME280;65120;59.304;18.294;2023-04-24T04:07:52;100412.13;;;7.69;65.29
76311;BME280;65120;59.304;18.294;2023-04-24T04:10:19;100412.97;;;7.68;65.40
76311;BME280;65120;59.304;18.294;2023-04-24T04:12:46;100408.66;;;7.67;65.38
76311;BME280;65120;59.304;18.294;2023-04-24T04:15:14;100417.38;;;7.64;65.63
76311;BME280;65120;59.304;18.294;2023-04-24T04:17:41;100425.16;;;7.64;65.53
76311;BME280;65120;59.304;18.294;2023-04-24T04:20:08;100433.00;;;7.63;65.59
76311;BME280;65120;59.304;18.294;2023-04-24T04:22:36;100440.75;;;7.64;65.66
76311;BME280;65120;59.304;18.294;2023-04-24T04:25:03;100448.59;;;7.61;65.48
76311;BME280;65120;59.304;18.294;2023-04-24T04:27:31;100452.94;;;7.61;65.39
76311;BME280;65120;59.304;18.294;2023-04-24T04:29:59;100466.78;;;7.61;65.77
76311;BME280;65120;59.304;18.294;2023-04-24T04:32:31;100465.94;;;7.61;65.72
76311;BME280;65120;59.304;18.294;2023-04-24T04:34:58;100472.88;;;7.59;65.55
76311;BME280;65120;59.304;18.294;2023-04-24T04:37:28;100441.00;;;7.44;65.68
76311;BME280;65120;59.304;18.294;2023-04-24T04:39:55;100465.97;;;7.56;65.56
76311;BME280;65120;59.304;18.294;2023-04-24T04:42:23;100467.72;;;7.57;65.74
76311;BME280;65120;59.304;18.294;2023-04-24T04:44:50;100487.63;;;7.57;66.06
76311;BME280;65120;59.304;18.294;2023-04-24T04:47:17;100490.22;;;7.57;65.98
76311;BME280;65120;59.304;18.294;2023-04-24T04:49:46;100488.56;;;7.53;65.83
76311;BME280;65120;59.304;18.294;2023-04-24T04:52:13;100486.84;;;7.52;65.72
76311;BME280;65120;59.304;18.294;2023-04-24T04:54:42;100490.28;;;7.52;65.74
76311;BME280;65120;59.304;18.294;2023-04-24T04:57:09;100488.56;;;7.53;65.87
76311;BME280;65120;59.304;18.294;2023-04-24T04:59:37;100486.84;;;7.52;66.12
76311;BME280;65120;59.304;18.294;2023-04-24T05:02:04;100489.47;;;7.49;66.19
76311;BME280;65120;59.304;18.294;2023-04-24T05:04:31;100488.63;;;7.47;65.82
76311;BME280;65120;59.304;18.294;2023-04-24T05:06:59;100478.34;;;7.34;65.88
76311;BME280;65120;59.304;18.294;2023-04-24T05:09:26;100504.22;;;7.47;66.07
76311;BME280;65120;59.304;18.294;2023-04-24T05:11:54;100501.63;;;7.47;66.11
76311;BME280;65120;59.304;18.294;2023-04-24T05:14:21;100492.13;;;7.39;65.95
76311;BME280;65120;59.304;18.294;2023-04-24T05:16:48;100505.97;;;7.44;65.95
76311;BME280;65120;59.304;18.294;2023-04-24T05:19:15;100500.81;;;7.38;66.20
76311;BME280;65120;59.304;18.294;2023-04-24T05:21:42;100504.28;;;7.40;65.96
76311;BME280;65120;59.304;18.294;2023-04-24T05:24:10;100508.59;;;7.41;66.14
76311;BME280;65120;59.304;18.294;2023-04-24T05:26:37;100507.75;;;7.36;65.93
76311;BME280;65120;59.304;18.294;2023-04-24T05:29:04;100506.91;;;7.37;66.03
76311;BME280;65120;59.304;18.294;2023-04-24T05:31:31;100518.13;;;7.39;65.80
76311;BME280;65120;59.304;18.294;2023-04-24T05:33:58;100513.00;;;7.33;65.79
76311;BME280;65120;59.304;18.294;2023-04-24T05:36:25;100516.47;;;7.32;65.87
76311;BME280;65120;59.304;18.294;2023-04-24T05:38:53;100528.56;;;7.36;65.91
76311;BME280;65120;59.304;18.294;2023-04-24T05:41:22;100533.78;;;7.33;65.92
76311;BME280;65120;59.304;18.294;2023-04-24T05:43:49;100525.16;;;7.28;66.14
76311;BME280;65120;59.304;18.294;2023-04-24T05:46:16;100538.13;;;7.33;65.85
76311;BME280;65120;59.304;18.294;2023-04-24T05:48:43;100529.53;;;7.26;65.97
76311;BME280;65120;59.304;18.294;2023-04-24T05:51:10;100549.44;;;7.29;66.21
76311;BME280;65120;59.304;18.294;2023-04-24T05:53:37;100556.34;;;7.28;66.08
76311;BME280;65120;59.304;18.294;2023-04-24T05:56:04;100552.91;;;7.26;65.92
76311;BME280;65120;59.304;18.294;2023-04-24T05:58:32;100540.81;;;7.22;66.10
76311;BME280;65120;59.304;18.294;2023-04-24T06:00:59;100554.66;;;7.24;66.18
76311;BME280;65120;59.304;18.294;2023-04-24T06:03:27;100551.19;;;7.22;66.00
76311;BME280;65120;59.304;18.294;2023-04-24T06:05:54;100541.66;;;7.22;65.90
76311;BME280;65120;59.304;18.294;2023-04-24T06:08:21;100539.97;;;7.20;65.94
76311;BME280;65120;59.304;18.294;2023-04-24T06:10:48;100544.31;;;7.18;66.06
76311;BME280;65120;59.304;18.294;2023-04-24T06:13:15;100537.41;;;7.14;66.33
76311;BME280;65120;59.304;18.294;2023-04-24T06:15:43;100537.41;;;7.14;65.96
76311;BME280;65120;59.304;18.294;2023-04-24T06:18:10;100549.53;;;7.15;66.21
76311;BME280;65120;59.304;18.294;2023-04-24T06:20:38;100547.78;;;7.15;66.04
76311;BME280;65120;59.304;18.294;2023-04-24T06:23:05;100551.28;;;7.13;66.33
76311;BME280;65120;59.304;18.294;2023-04-24T06:25:32;100553.00;;;7.14;66.23
76311;BME280;65120;59.304;18.294;2023-04-24T06:27:59;100547.00;;;7.07;66.28
76311;BME280;65120;59.304;18.294;2023-04-24T06:30:27;100546.13;;;7.07;66.28
76311;BME280;65120;59.304;18.294;2023-04-24T06:32:55;100559.09;;;7.08;66.28
76311;BME280;65120;59.304;18.294;2023-04-24T06:35:22;100551.31;;;7.08;66.20
76311;BME280;65120;59.304;18.294;2023-04-24T06:37:49;100547.88;;;7.05;66.00
76311;BME280;65120;59.304;18.294;2023-04-24T06:40:16;100548.78;;;7.01;66.49
76311;BME280;65120;59.304;18.294;2023-04-24T06:42:43;100553.16;;;6.95;66.17
76311;BME280;65120;59.304;18.294;2023-04-24T06:45:10;100561.78;;;6.97;66.55
76311;BME280;65120;59.304;18.294;2023-04-24T06:47:37;100541.13;;;6.82;66.75
76311;BME280;65120;59.304;18.294;2023-04-24T06:50:07;100557.47;;;6.95;66.44
76311;BME280;65120;59.304;18.294;2023-04-24T06:52:34;100576.53;;;6.95;66.51
76311;BME280;65120;59.304;18.294;2023-04-24T06:55:01;100581.72;;;6.94;66.37
76311;BME280;65120;59.304;18.294;2023-04-24T06:57:28;100572.19;;;6.93;66.49
76311;BME280;65120;59.304;18.294;2023-04-24T06:59:56;100579.13;;;6.95;66.75
76311;BME280;65120;59.304;18.294;2023-04-24T07:02:23;100580.84;;;6.95;66.58
76311;BME280;65120;59.304;18.294;2023-04-24T07:04:49;100582.56;;;6.97;66.49
76311;BME280;65120;59.304;18.294;2023-04-24T07:07:18;100577.41;;;6.93;66.79
76311;BME280;65120;59.304;18.294;2023-04-24T07:09:44;100589.50;;;6.95;66.62
76311;BME280;65120;59.304;18.294;2023-04-24T07:12:11;100598.19;;;6.94;66.69
76311;BME280;65120;59.304;18.294;2023-04-24T07:14:39;100596.47;;;6.87;66.27
76311;BME280;65120;59.304;18.294;2023-04-24T07:17:06;100612.06;;;6.89;66.71
76311;BME280;65120;59.304;18.294;2023-04-24T07:19:33;100613.75;;;6.88;66.88
76311;BME280;65120;59.304;18.294;2023-04-24T07:22:00;100615.53;;;6.86;66.57
76311;BME280;65120;59.304;18.294;2023-04-24T07:24:30;100617.28;;;6.81;66.87
76311;BME280;65120;59.304;18.294;2023-04-24T07:26:58;100627.69;;;6.76;66.83
76311;BME280;65120;59.304;18.294;2023-04-24T07:29:26;100627.72;;;6.75;66.74
76311;BME280;65120;59.304;18.294;2023-04-24T07:31:53;100628.59;;;6.72;67.02
76311;BME280;65120;59.304;18.294;2023-04-24T07:34:20;100627.75;;;6.69;66.98
76311;BME280;65120;59.304;18.294;2023-04-24T07:36:47;100631.16;;;6.71;67.08
76311;BME280;65120;59.304;18.294;2023-04-24T07:39:13;100630.31;;;6.72;67.27
76311;BME280;65120;59.304;18.294;2023-04-24T07:41:42;100642.41;;;6.73;67.17
76311;BME280;65120;59.304;18.294;2023-04-24T07:44:09;100632.94;;;6.64;66.91
76311;BME280;65120;59.304;18.294;2023-04-24T07:46:35;100649.38;;;6.69;67.08
76311;BME280;65120;59.304;18.294;2023-04-24T07:49:02;100648.50;;;6.69;67.25
76311;BME280;65120;59.304;18.294;2023-04-24T07:51:30;100666.69;;;6.69;67.16
76311;BME280;65120;59.304;18.294;2023-04-24T07:53:58;100661.50;;;6.69;67.08
76311;BME280;65120;59.304;18.294;2023-04-24T07:56:25;100670.97;;;6.71;66.79
76311;BME280;65120;59.304;18.294;2023-04-24T07:58:54;100668.38;;;6.71;67.19
76311;BME280;65120;59.304;18.294;2023-04-24T08:01:20;100677.03;;;6.72;67.14
76311;BME280;65120;59.304;18.294;2023-04-24T08:03:47;100672.69;;;6.71;66.79
76311;BME280;65120;59.304;18.294;2023-04-24T08:06:14;100674.44;;;6.70;67.17
76311;BME280;65120;59.304;18.294;2023-04-24T08:08:41;100674.47;;;6.69;66.88
76311;BME280;65120;59.304;18.294;2023-04-24T08:11:08;100674.47;;;6.69;66.86
76311;BME280;65120;59.304;18.294;2023-04-24T08:13:35;100671.00;;;6.70;67.24
76311;BME280;65120;59.304;18.294;2023-04-24T08:16:03;100656.31;;;6.57;67.23
76311;BME280;65120;59.304;18.294;2023-04-24T08:18:30;100676.22;;;6.64;67.32
76311;BME280;65120;59.304;18.294;2023-04-24T08:20:57;100672.75;;;6.62;67.72
76311;BME280;65120;59.304;18.294;2023-04-24T08:23:26;100668.47;;;6.53;67.36
76311;BME280;65120;59.304;18.294;2023-04-24T08:25:54;100677.94;;;6.57;67.32
76311;BME280;65120;59.304;18.294;2023-04-24T08:28:21;100684.88;;;6.53;67.37
76311;BME280;65120;59.304;18.294;2023-04-24T08:30:48;100680.56;;;6.52;67.55
76311;BME280;65120;59.304;18.294;2023-04-24T08:33:22;100682.28;;;6.53;67.53
76311;BME280;65120;59.304;18.294;2023-04-24T08:35:49;100661.56;;;6.43;67.56
76311;BME280;65120;59.304;18.294;2023-04-24T08:38:16;100684.91;;;6.52;67.69
76311;BME280;65120;59.304;18.294;2023-04-24T08:40:43;100689.22;;;6.53;67.98
76311;BME280;65120;59.304;18.294;2023-04-24T08:43:13;100688.34;;;6.52;67.81
76311;BME280;65120;59.304;18.294;2023-04-24T08:45:41;100686.63;;;6.48;67.68
76311;BME280;65120;59.304;18.294;2023-04-24T08:48:08;100695.28;;;6.50;68.02
76311;BME280;65120;59.304;18.294;2023-04-24T08:50:38;100684.06;;;6.47;67.90
76311;BME280;65120;59.304;18.294;2023-04-24T08:53:07;100692.69;;;6.50;67.97
76311;BME280;65120;59.304;18.294;2023-04-24T08:55:35;100692.72;;;6.49;67.92
76311;BME280;65120;59.304;18.294;2023-04-24T08:58:02;100697.88;;;6.50;67.71
76311;BME280;65120;59.304;18.294;2023-04-24T09:00:30;100695.31;;;6.44;67.59
76311;BME280;65120;59.304;18.294;2023-04-24T09:02:57;100710.00;;;6.50;67.62
76311;BME280;65120;59.304;18.294;2023-04-24T09:05:25;100711.72;;;6.51;67.71
76311;BME280;65120;59.304;18.294;2023-04-24T09:07:55;100719.50;;;6.51;67.83
76311;BME280;65120;59.304;18.294;2023-04-24T09:10:23;100707.38;;;6.51;67.67
76311;BME280;65120;59.304;18.294;2023-04-24T09:12:50;100709.97;;;6.51;67.69
76311;BME280;65120;59.304;18.294;2023-04-24T09:15:18;100713.47;;;6.52;67.52
76311;BME280;65120;59.304;18.294;2023-04-24T09:17:45;100709.13;;;6.49;67.52
76311;BME280;65120;59.304;18.294;2023-04-24T09:20:12;100676.31;;;6.30;67.77
76311;BME280;65120;59.304;18.294;2023-04-24T09:22:39;100706.53;;;6.49;67.65
76311;BME280;65120;59.304;18.294;2023-04-24T09:25:09;100703.97;;;6.46;67.54
76311;BME280;65120;59.304;18.294;2023-04-24T09:27:41;100706.53;;;6.48;67.59
76311;BME280;65120;59.304;18.294;2023-04-24T09:30:10;100716.06;;;6.47;67.76
76311;BME280;65120;59.304;18.294;2023-04-24T09:32:37;100716.06;;;6.47;67.74
76311;BME280;65120;59.304;18.294;2023-04-24T09:35:09;100719.53;;;6.46;67.79
76311;BME280;65120;59.304;18.294;2023-04-24T09:37:37;100719.53;;;6.46;68.21
76311;BME280;65120;59.304;18.294;2023-04-24T09:40:10;100729.00;;;6.46;68.19
76311;BME280;65120;59.304;18.294;2023-04-24T09:42:38;100721.25;;;6.44;68.52
76311;BME280;65120;59.304;18.294;2023-04-24T09:45:08;100727.28;;;6.45;68.49
76311;BME280;65120;59.304;18.294;2023-04-24T09:47:36;100720.38;;;6.44;68.61
76311;BME280;65120;59.304;18.294;2023-04-24T09:50:09;100725.59;;;6.44;68.61
76311;BME280;65120;59.304;18.294;2023-04-24T09:52:39;100729.03;;;6.41;68.72
76311;BME280;65120;59.304;18.294;2023-04-24T09:55:16;100722.97;;;6.39;68.67
76311;BME280;65120;59.304;18.294;2023-04-24T09:57:50;100710.88;;;6.37;68.65
76311;BME280;65120;59.304;18.294;2023-04-24T10:00:20;100706.56;;;6.33;68.74
76311;BME280;65120;59.304;18.294;2023-04-24T10:02:54;100703.13;;;6.32;68.58
76311;BME280;65120;59.304;18.294;2023-04-24T10:05:23;100703.13;;;6.35;68.68
76311;BME280;65120;59.304;18.294;2023-04-24T10:07:51;100694.47;;;6.28;68.55
76311;BME280;65120;59.304;18.294;2023-04-24T10:10:19;100703.09;;;6.34;69.20
76311;BME280;65120;59.304;18.294;2023-04-24T10:12:46;100706.56;;;6.36;69.15
76311;BME280;65120;59.304;18.294;2023-04-24T10:15:15;100703.94;;;6.37;69.13
76311;BME280;65120;59.304;18.294;2023-04-24T10:17:47;100698.78;;;6.34;68.90
76311;BME280;65120;59.304;18.294;2023-04-24T10:20:18;100699.63;;;6.35;68.98
76311;BME280;65120;59.304;18.294;2023-04-24T10:22:48;100699.66;;;6.38;68.56
76311;BME280;65120;59.304;18.294;2023-04-24T10:25:20;100707.44;;;6.38;68.62
76311;BME280;65120;59.304;18.294;2023-04-24T10:27:48;100712.59;;;6.42;68.85
76311;BME280;65120;59.304;18.294;2023-04-24T10:30:16;100710.00;;;6.44;68.54
76311;BME280;65120;59.304;18.294;2023-04-24T10:32:43;100698.78;;;6.43;68.85
76311;BME280;65120;59.304;18.294;2023-04-24T10:35:13;100710.88;;;6.49;68.70
76311;BME280;65120;59.304;18.294;2023-04-24T10:37:44;100687.53;;;6.37;68.64
76311;BME280;65120;59.304;18.294;2023-04-24T10:40:17;100717.78;;;6.50;68.56
76311;BME280;65120;59.304;18.294;2023-04-24T10:42:47;100720.38;;;6.50;68.75
76311;BME280;65120;59.304;18.294;2023-04-24T10:45:17;100715.19;;;6.45;68.54
76311;BME280;65120;59.304;18.294;2023-04-24T10:47:56;100726.41;;;6.50;68.78
76311;BME280;65120;59.304;18.294;2023-04-24T10:50:23;100728.13;;;6.51;68.57
76311;BME280;65120;59.304;18.294;2023-04-24T10:52:51;100726.44;;;6.47;68.86
76311;BME280;65120;59.304;18.294;2023-04-24T10:55:41;100738.50;;;6.51;68.49
76311;BME280;65120;59.304;18.294;2023-04-24T10:58:10;100741.09;;;6.51;68.81
76311;BME280;65120;59.304;18.294;2023-04-24T11:00:39;100740.25;;;6.54;68.78
76311;BME280;65120;59.304;18.294;2023-04-24T11:03:06;100741.13;;;6.56;68.59
76311;BME280;65120;59.304;18.294;2023-04-24T11:05:50;100748.91;;;6.56;68.47
76311;BME280;65120;59.304;18.294;2023-04-24T11:08:23;100749.75;;;6.53;68.82
76311;BME280;65120;59.304;18.294;2023-04-24T11:10:58;100755.81;;;6.56;68.57
76311;BME280;65120;59.304;18.294;2023-04-24T11:13:31;100750.66;;;6.52;68.63
76311;BME280;65120;59.304;18.294;2023-04-24T11:16:23;100754.09;;;6.50;68.45
76311;BME280;65120;59.304;18.294;2023-04-24T11:19:01;100748.06;;;6.46;68.30
76311;BME280;65120;59.304;18.294;2023-04-24T11:21:31;100748.91;;;6.42;68.17
76311;BME280;65120;59.304;18.294;2023-04-24T11:23:58;100751.50;;;6.45;68.25
76311;BME280;65120;59.304;18.294;2023-04-24T11:26:25;100750.66;;;6.46;68.23
76311;BME280;65120;59.304;18.294;2023-04-24T11:29:07;100733.38;;;6.39;68.25
76311;BME280;65120;59.304;18.294;2023-04-24T11:31:36;100752.38;;;6.44;68.14
76311;BME280;65120;59.304;18.294;2023-04-24T11:34:10;100750.66;;;6.42;68.45
76311;BME280;65120;59.304;18.294;2023-04-24T11:36:37;100766.22;;;6.49;68.65
76311;BME280;65120;59.304;18.294;2023-04-24T11:39:05;100754.13;;;6.42;68.38
76311;BME280;65120;59.304;18.294;2023-04-24T11:41:33;100763.63;;;6.49;68.58
76311;BME280;65120;59.304;18.294;2023-04-24T11:44:00;100758.44;;;6.52;68.52
76311;BME280;65120;59.304;18.294;2023-04-24T11:46:29;100757.56;;;6.52;68.74
76311;BME280;65120;59.304;18.294;2023-04-24T11:48:58;100755.81;;;6.54;68.62
76311;BME280;65120;59.304;18.294;2023-04-24T11:51:25;100761.88;;;6.58;68.95
76311;BME280;65120;59.304;18.294;2023-04-24T11:53:53;100761.88;;;6.58;68.62
76311;BME280;65120;59.304;18.294;2023-04-24T11:56:21;100757.56;;;6.53;68.62
76311;BME280;65120;59.304;18.294;2023-04-24T11:58:48;100761.88;;;6.58;68.74
76311;BME280;65120;59.304;18.294;2023-04-24T12:01:15;100766.19;;;6.59;68.56
76311;BME280;65120;59.304;18.294;2023-04-24T12:03:47;100774.84;;;6.62;68.60
76311;BME280;65120;59.304;18.294;2023-04-24T12:06:14;100764.44;;;6.62;68.49
76311;BME280;65120;59.304;18.294;2023-04-24T12:08:41;100766.16;;;6.68;68.50
76311;BME280;65120;59.304;18.294;2023-04-24T12:13:43;100769.66;;;6.64;68.02
76311;BME280;65120;59.304;18.294;2023-04-24T12:16:10;100773.97;;;6.62;67.78
76311;BME280;65120;59.304;18.294;2023-04-24T12:18:43;100775.72;;;6.58;67.65
76311;BME280;65120;59.304;18.294;2023-04-24T12:21:18;100781.78;;;6.52;67.61
76311;BME280;65120;59.304;18.294;2023-04-24T12:23:45;100780.03;;;6.48;67.55
76311;BME280;65120;59.304;18.294;2023-04-24T12:26:16;100778.34;;;6.44;67.58
76311;BME280;65120;59.304;18.294;2023-04-24T12:28:46;100772.28;;;6.39;67.37
76311;BME280;65120;59.304;18.294;2023-04-24T12:31:14;100770.56;;;6.35;67.46
76311;BME280;65120;59.304;18.294;2023-04-24T12:33:42;100767.97;;;6.32;67.66
76311;BME280;65120;59.304;18.294;2023-04-24T12:36:10;100771.44;;;6.29;67.28
76311;BME280;65120;59.304;18.294;2023-04-24T12:38:39;100756.72;;;6.25;67.16
76311;BME280;65120;59.304;18.294;2023-04-24T12:41:11;100758.47;;;6.20;67.07
76311;BME280;65120;59.304;18.294;2023-04-24T12:43:38;100758.47;;;6.16;67.18
76311;BME280;65120;59.304;18.294;2023-04-24T12:46:16;100749.81;;;6.11;67.26
76311;BME280;65120;59.304;18.294;2023-04-24T12:48:44;100760.22;;;6.07;67.44
76311;BME280;65120;59.304;18.294;2023-04-24T12:51:11;100760.22;;;6.04;67.17
76311;BME280;65120;59.304;18.294;2023-04-24T12:53:38;100764.53;;;6.01;67.13
76311;BME280;65120;59.304;18.294;2023-04-24T12:56:05;100749.84;;;5.98;67.21
76311;BME280;65120;59.304;18.294;2023-04-24T12:58:32;100743.78;;;5.96;67.22